sensor_id;sensor_type;location;lat;lon;timestamp;P1;durP1;ratioP1;P2;durP2;ratioP2
14603;SDS011;7388;51.078;13.740;2024-03-02T00:00:21;67.10;;;50.73;;
14603;SDS011;7388;51.078;13.740;2024-03-02T00:02:48;65.85;;;48.65;;
14603;SDS011;7388;51.078;13.740;2024-03-02T00:05:15;70.25;;;48.72;;
14603;SDS011;7388;51.078;13.740;2024-03-02T00:07:42;62.65;;;47.60;;
14603;SDS011;7388;51.078;13.740;2024-03-02T00:10:10;67.65;;;46.67;;
14603;SDS011;7388;51.078;13.740;2024-03-02T00:12:39;79.05;;;49.40;;
14603;SDS011;7388;51.078;13.740;2024-03-02T00:18:12;67.25;;;49.92;;
14603;SDS011;7388;51.078;13.740;2024-03-02T00:20:40;63.72;;;47.42;;
14603;SDS011;7388;51.078;13.740;2024-03-02T00:23:06;76.20;;;49.78;;
14603;SDS011;7388;51.078;13.740;2024-03-02T00:25:43;71.07;;;52.28;;
14603;SDS011;7388;51.078;13.740;2024-03-02T00:28:16;66.32;;;48.45;;
14603;SDS011;7388;51.078;13.740;2024-03-02T00:30:51;63.05;;;47.08;;
14603;SDS011;7388;51.078;13.740;2024-03-02T00:33:23;67.57;;;51.10;;
14603;SDS011;7388;51.078;13.740;2024-03-02T00:35:53;68.72;;;50.28;;
14603;SDS011;7388;51.078;13.740;2024-03-02T00:38:19;68.82;;;47.10;;
14603;SDS011;7388;51.078;13.740;2024-03-02T00:40:45;71.97;;;49.67;;
14603;SDS011;7388;51.078;13.740;2024-03-02T00:46:09;67.15;;;48.35;;
14603;SDS011;7388;51.078;13.740;2024-03-02T00:49:16;71.80;;;49.67;;
14603;SDS011;7388;51.078;13.740;2024-03-02T00:51:49;65.78;;;45.03;;
14603;SDS011;7388;51.078;13.740;2024-03-02T00:54:23;68.22;;;47.30;;
14603;SDS011;7388;51.078;13.740;2024-03-02T00:56:52;55.88;;;42.70;;
14603;SDS011;7388;51.078;13.740;2024-03-02T00:59:20;63.42;;;45.38;;
14603;SDS011;7388;51.078;13.740;2024-03-02T01:01:47;66.20;;;49.42;;
14603;SDS011;7388;51.078;13.740;2024-03-02T01:04:13;54.80;;;42.75;;
14603;SDS011;7388;51.078;13.740;2024-03-02T01:06:39;60.50;;;45.60;;
14603;SDS011;7388;51.078;13.740;2024-03-02T01:09:04;53.63;;;40.70;;
14603;SDS011;7388;51.078;13.740;2024-03-02T01:11:30;53.00;;;42.23;;
14603;SDS011;7388;51.078;13.740;2024-03-02T01:13:56;61.13;;;45.43;;
14603;SDS011;7388;51.078;13.740;2024-03-02T01:16:22;65.63;;;45.80;;
14603;SDS011;7388;51.078;13.740;2024-03-02T01:18:48;63.83;;;46.57;;
14603;SDS011;7388;51.078;13.740;2024-03-02T01:21:14;63.03;;;46.93;;
14603;SDS011;7388;51.078;13.740;2024-03-02T01:23:41;63.78;;;44.45;;
14603;SDS011;7388;51.078;13.740;2024-03-02T01:26:07;59.92;;;45.38;;
14603;SDS011;7388;51.078;13.740;2024-03-02T01:28:33;65.47;;;48.17;;
14603;SDS011;7388;51.078;13.740;2024-03-02T01:30:58;67.57;;;47.37;;
14603;SDS011;7388;51.078;13.740;2024-03-02T01:33:24;65.77;;;47.97;;
14603;SDS011;7388;51.078;13.740;2024-03-02T01:35:50;67.40;;;50.17;;
14603;SDS011;7388;51.078;13.740;2024-03-02T01:38:16;68.90;;;49.37;;
14603;SDS011;7388;51.078;13.740;2024-03-02T01:40:42;75.72;;;50.03;;
14603;SDS011;7388;51.078;13.740;2024-03-02T01:43:09;66.68;;;50.72;;
14603;SDS011;7388;51.078;13.740;2024-03-02T01:45:35;70.93;;;45.80;;
14603;SDS011;7388;51.078;13.740;2024-03-02T01:48:02;59.95;;;45.35;;
14603;SDS011;7388;51.078;13.740;2024-03-02T01:50:31;61.22;;;45.83;;
14603;SDS011;7388;51.078;13.740;2024-03-02T01:52:58;62.67;;;43.97;;
14603;SDS011;7388;51.078;13.740;2024-03-02T01:55:24;63.58;;;44.53;;
14603;SDS011;7388;51.078;13.740;2024-03-02T01:57:50;57.75;;;44.47;;
14603;SDS011;7388;51.078;13.740;2024-03-02T02:00:18;61.80;;;45.95;;
14603;SDS011;7388;51.078;13.740;2024-03-02T02:02:44;61.85;;;44.72;;
14603;SDS011;7388;51.078;13.740;2024-03-02T02:05:11;52.75;;;40.28;;
14603;SDS011;7388;51.078;13.740;2024-03-02T02:07:37;56.55;;;44.30;;
14603;SDS011;7388;51.078;13.740;2024-03-02T02:10:03;55.53;;;43.13;;
14603;SDS011;7388;51.078;13.740;2024-03-02T02:12:29;65.22;;;47.25;;
14603;SDS011;7388;51.078;13.740;2024-03-02T02:14:55;59.83;;;49.00;;
14603;SDS011;7388;51.078;13.740;2024-03-02T02:17:21;63.47;;;41.97;;
14603;SDS011;7388;51.078;13.740;2024-03-02T02:19:46;60.27;;;46.00;;
14603;SDS011;7388;51.078;13.740;2024-03-02T02:22:12;63.70;;;47.20;;
14603;SDS011;7388;51.078;13.740;2024-03-02T02:24:41;66.33;;;48.90;;
14603;SDS011;7388;51.078;13.740;2024-03-02T02:27:07;61.28;;;46.65;;
14603;SDS011;7388;51.078;13.740;2024-03-02T02:29:34;52.08;;;43.30;;
14603;SDS011;7388;51.078;13.740;2024-03-02T02:32:00;62.25;;;46.78;;
14603;SDS011;7388;51.078;13.740;2024-03-02T02:34:25;57.07;;;45.77;;
14603;SDS011;7388;51.078;13.740;2024-03-02T02:36:51;66.63;;;49.37;;
14603;SDS011;7388;51.078;13.740;2024-03-02T02:39:17;64.17;;;49.53;;
14603;SDS011;7388;51.078;13.740;2024-03-02T02:41:46;67.95;;;50.47;;
14603;SDS011;7388;51.078;13.740;2024-03-02T02:44:12;65.50;;;48.23;;
14603;SDS011;7388;51.078;13.740;2024-03-02T02:46:40;57.43;;;44.67;;
14603;SDS011;7388;51.078;13.740;2024-03-02T02:49:06;64.65;;;49.20;;
14603;SDS011;7388;51.078;13.740;2024-03-02T02:51:32;65.43;;;50.00;;
14603;SDS011;7388;51.078;13.740;2024-03-02T02:53:58;66.43;;;47.47;;
14603;SDS011;7388;51.078;13.740;2024-03-02T02:56:23;67.40;;;51.53;;
14603;SDS011;7388;51.078;13.740;2024-03-02T02:58:49;57.97;;;44.80;;
14603;SDS011;7388;51.078;13.740;2024-03-02T03:01:15;54.50;;;42.93;;
14603;SDS011;7388;51.078;13.740;2024-03-02T03:03:44;56.30;;;44.97;;
14603;SDS011;7388;51.078;13.740;2024-03-02T03:06:10;64.03;;;47.78;;
14603;SDS011;7388;51.078;13.740;2024-03-02T03:08:37;71.00;;;47.60;;
14603;SDS011;7388;51.078;13.740;2024-03-02T03:11:03;67.57;;;51.47;;
14603;SDS011;7388;51.078;13.740;2024-03-02T03:13:30;70.80;;;49.05;;
14603;SDS011;7388;51.078;13.740;2024-03-02T03:15:57;59.75;;;47.22;;
14603;SDS011;7388;51.078;13.740;2024-03-02T03:18:22;59.07;;;45.80;;
14603;SDS011;7388;51.078;13.740;2024-03-02T03:20:48;64.03;;;48.60;;
14603;SDS011;7388;51.078;13.740;2024-03-02T03:23:15;58.08;;;47.58;;
14603;SDS011;7388;51.078;13.740;2024-03-02T03:25:41;59.53;;;43.15;;
14603;SDS011;7388;51.078;13.740;2024-03-02T03:28:08;62.97;;;48.70;;
14603;SDS011;7388;51.078;13.740;2024-03-02T03:30:37;66.15;;;47.10;;
14603;SDS011;7388;51.078;13.740;2024-03-02T03:33:03;62.20;;;47.80;;
14603;SDS011;7388;51.078;13.740;2024-03-02T03:35:31;54.08;;;45.15;;
14603;SDS011;7388;51.078;13.740;2024-03-02T03:37:57;58.05;;;47.97;;
14603;SDS011;7388;51.078;13.740;2024-03-02T03:40:23;69.40;;;45.38;;
14603;SDS011;7388;51.078;13.740;2024-03-02T03:42:49;71.30;;;52.10;;
14603;SDS011;7388;51.078;13.740;2024-03-02T03:45:15;63.33;;;51.03;;
14603;SDS011;7388;51.078;13.740;2024-03-02T03:47:41;60.10;;;48.03;;
14603;SDS011;7388;51.078;13.740;2024-03-02T03:50:07;64.47;;;46.70;;
14603;SDS011;7388;51.078;13.740;2024-03-02T03:52:33;53.58;;;45.47;;
14603;SDS011;7388;51.078;13.740;2024-03-02T03:54:59;63.30;;;49.13;;
14603;SDS011;7388;51.078;13.740;2024-03-02T03:57:25;55.40;;;43.60;;
14603;SDS011;7388;51.078;13.740;2024-03-02T03:59:52;63.92;;;45.97;;
14603;SDS011;7388;51.078;13.740;2024-03-02T04:02:18;54.45;;;43.58;;
14603;SDS011;7388;51.078;13.740;2024-03-02T04:04:44;55.70;;;44.20;;
14603;SDS011;7388;51.078;13.740;2024-03-02T04:07:10;52.67;;;42.80;;
14603;SDS011;7388;51.078;13.740;2024-03-02T04:09:36;69.83;;;48.83;;
14603;SDS011;7388;51.078;13.740;2024-03-02T04:12:01;76.03;;;48.27;;
14603;SDS011;7388;51.078;13.740;2024-03-02T04:14:27;63.50;;;46.80;;
14603;SDS011;7388;51.078;13.740;2024-03-02T04:16:53;67.27;;;46.37;;
14603;SDS011;7388;51.078;13.740;2024-03-02T04:19:18;63.80;;;45.37;;
14603;SDS011;7388;51.078;13.740;2024-03-02T04:21:44;60.23;;;46.70;;
14603;SDS011;7388;51.078;13.740;2024-03-02T04:24:10;71.90;;;50.47;;
14603;SDS011;7388;51.078;13.740;2024-03-02T04:26:35;62.87;;;48.90;;
14603;SDS011;7388;51.078;13.740;2024-03-02T04:29:01;84.17;;;53.60;;
14603;SDS011;7388;51.078;13.740;2024-03-02T04:31:27;65.80;;;48.63;;
14603;SDS011;7388;51.078;13.740;2024-03-02T04:33:53;69.03;;;45.00;;
14603;SDS011;7388;51.078;13.740;2024-03-02T04:36:19;56.25;;;44.80;;
14603;SDS011;7388;51.078;13.740;2024-03-02T04:38:46;52.95;;;42.00;;
14603;SDS011;7388;51.078;13.740;2024-03-02T04:41:12;60.13;;;42.55;;
14603;SDS011;7388;51.078;13.740;2024-03-02T04:43:37;57.57;;;42.90;;
14603;SDS011;7388;51.078;13.740;2024-03-02T04:46:04;51.17;;;44.23;;
14603;SDS011;7388;51.078;13.740;2024-03-02T04:48:31;59.03;;;45.85;;
14603;SDS011;7388;51.078;13.740;2024-03-02T04:50:57;62.27;;;48.70;;
14603;SDS011;7388;51.078;13.740;2024-03-02T04:53:23;55.70;;;42.67;;
14603;SDS011;7388;51.078;13.740;2024-03-02T04:55:49;65.47;;;47.10;;
14603;SDS011;7388;51.078;13.740;2024-03-02T04:58:35;72.65;;;48.10;;
14603;SDS011;7388;51.078;13.740;2024-03-02T05:01:00;69.77;;;48.47;;
14603;SDS011;7388;51.078;13.740;2024-03-02T05:03:26;68.40;;;48.60;;
14603;SDS011;7388;51.078;13.740;2024-03-02T05:05:52;75.67;;;49.57;;
14603;SDS011;7388;51.078;13.740;2024-03-02T05:08:18;65.97;;;48.23;;
14603;SDS011;7388;51.078;13.740;2024-03-02T05:10:43;53.40;;;42.07;;
14603;SDS011;7388;51.078;13.740;2024-03-02T05:13:09;63.83;;;46.13;;
14603;SDS011;7388;51.078;13.740;2024-03-02T05:15:35;63.17;;;46.97;;
14603;SDS011;7388;51.078;13.740;2024-03-02T05:18:00;74.90;;;47.17;;
14603;SDS011;7388;51.078;13.740;2024-03-02T05:20:30;67.70;;;47.47;;
14603;SDS011;7388;51.078;13.740;2024-03-02T05:22:55;65.53;;;44.33;;
14603;SDS011;7388;51.078;13.740;2024-03-02T05:25:21;68.63;;;46.87;;
14603;SDS011;7388;51.078;13.740;2024-03-02T05:27:47;69.07;;;49.67;;
14603;SDS011;7388;51.078;13.740;2024-03-02T05:30:13;71.63;;;48.37;;
14603;SDS011;7388;51.078;13.740;2024-03-02T05:32:39;60.55;;;46.30;;
14603;SDS011;7388;51.078;13.740;2024-03-02T05:35:05;69.30;;;48.57;;
14603;SDS011;7388;51.078;13.740;2024-03-02T05:37:32;70.00;;;51.95;;
14603;SDS011;7388;51.078;13.740;2024-03-02T05:39:57;83.00;;;51.40;;
14603;SDS011;7388;51.078;13.740;2024-03-02T05:42:24;69.15;;;47.20;;
14603;SDS011;7388;51.078;13.740;2024-03-02T05:44:50;69.23;;;47.80;;
14603;SDS011;7388;51.078;13.740;2024-03-02T05:47:15;64.53;;;46.73;;
14603;SDS011;7388;51.078;13.740;2024-03-02T05:49:41;74.57;;;49.90;;
14603;SDS011;7388;51.078;13.740;2024-03-02T05:52:08;64.57;;;47.50;;
14603;SDS011;7388;51.078;13.740;2024-03-02T05:54:33;67.13;;;44.83;;
14603;SDS011;7388;51.078;13.740;2024-03-02T05:56:59;78.97;;;49.90;;
14603;SDS011;7388;51.078;13.740;2024-03-02T05:59:41;73.18;;;47.63;;
14603;SDS011;7388;51.078;13.740;2024-03-02T06:02:08;77.20;;;47.65;;
14603;SDS011;7388;51.078;13.740;2024-03-02T06:04:34;70.30;;;51.03;;
14603;SDS011;7388;51.078;13.740;2024-03-02T06:07:00;70.07;;;48.53;;
14603;SDS011;7388;51.078;13.740;2024-03-02T06:09:25;78.03;;;51.93;;
14603;SDS011;7388;51.078;13.740;2024-03-02T06:11:51;70.10;;;49.67;;
14603;SDS011;7388;51.078;13.740;2024-03-02T06:14:17;64.80;;;47.10;;
14603;SDS011;7388;51.078;13.740;2024-03-02T06:16:42;68.37;;;52.07;;
14603;SDS011;7388;51.078;13.740;2024-03-02T06:19:08;63.80;;;46.03;;
14603;SDS011;7388;51.078;13.740;2024-03-02T06:21:34;69.27;;;50.50;;
14603;SDS011;7388;51.078;13.740;2024-03-02T06:24:00;61.10;;;45.23;;
14603;SDS011;7388;51.078;13.740;2024-03-02T06:26:26;64.57;;;45.50;;
14603;SDS011;7388;51.078;13.740;2024-03-02T06:28:52;73.90;;;46.97;;
14603;SDS011;7388;51.078;13.740;2024-03-02T06:31:17;83.67;;;51.70;;
14603;SDS011;7388;51.078;13.740;2024-03-02T06:33:43;74.17;;;50.40;;
14603;SDS011;7388;51.078;13.740;2024-03-02T06:36:09;71.00;;;47.20;;
14603;SDS011;7388;51.078;13.740;2024-03-02T06:38:36;77.22;;;46.80;;
14603;SDS011;7388;51.078;13.740;2024-03-02T06:41:02;81.37;;;50.77;;
14603;SDS011;7388;51.078;13.740;2024-03-02T06:43:28;76.70;;;49.13;;
14603;SDS011;7388;51.078;13.740;2024-03-02T06:45:54;81.53;;;51.67;;
14603;SDS011;7388;51.078;13.740;2024-03-02T06:48:19;76.40;;;49.53;;
14603;SDS011;7388;51.078;13.740;2024-03-02T06:50:48;77.73;;;50.87;;
14603;SDS011;7388;51.078;13.740;2024-03-02T06:53:15;67.50;;;46.72;;
14603;SDS011;7388;51.078;13.740;2024-03-02T06:55:44;68.38;;;46.80;;
14603;SDS011;7388;51.078;13.740;2024-03-02T06:58:11;67.25;;;45.42;;
14603;SDS011;7388;51.078;13.740;2024-03-02T07:00:40;79.43;;;49.03;;
14603;SDS011;7388;51.078;13.740;2024-03-02T07:03:06;75.35;;;48.78;;
14603;SDS011;7388;51.078;13.740;2024-03-02T07:05:31;72.43;;;47.30;;
14603;SDS011;7388;51.078;13.740;2024-03-02T07:07:57;73.57;;;48.33;;
14603;SDS011;7388;51.078;13.740;2024-03-02T07:10:23;78.10;;;51.70;;
14603;SDS011;7388;51.078;13.740;2024-03-02T07:12:49;86.78;;;52.45;;
14603;SDS011;7388;51.078;13.740;2024-03-02T07:15:15;76.93;;;47.13;;
14603;SDS011;7388;51.078;13.740;2024-03-02T07:17:52;74.45;;;48.88;;
14603;SDS011;7388;51.078;13.740;2024-03-02T07:20:18;75.03;;;48.00;;
14603;SDS011;7388;51.078;13.740;2024-03-02T07:22:44;73.73;;;49.90;;
14603;SDS011;7388;51.078;13.740;2024-03-02T07:25:09;70.13;;;48.03;;
14603;SDS011;7388;51.078;13.740;2024-03-02T07:27:35;78.97;;;51.17;;
14603;SDS011;7388;51.078;13.740;2024-03-02T07:30:04;70.17;;;51.37;;
14603;SDS011;7388;51.078;13.740;2024-03-02T07:32:30;79.28;;;53.83;;
14603;SDS011;7388;51.078;13.740;2024-03-02T07:34:56;65.80;;;47.33;;
14603;SDS011;7388;51.078;13.740;2024-03-02T07:37:22;73.03;;;49.17;;
14603;SDS011;7388;51.078;13.740;2024-03-02T07:39:49;77.68;;;49.92;;
14603;SDS011;7388;51.078;13.740;2024-03-02T07:42:16;70.35;;;49.63;;
14603;SDS011;7388;51.078;13.740;2024-03-02T07:44:41;71.53;;;47.63;;
14603;SDS011;7388;51.078;13.740;2024-03-02T07:47:09;81.13;;;53.53;;
14603;SDS011;7388;51.078;13.740;2024-03-02T07:49:35;74.10;;;51.87;;
14603;SDS011;7388;51.078;13.740;2024-03-02T07:52:01;71.70;;;50.50;;
14603;SDS011;7388;51.078;13.740;2024-03-02T07:54:26;71.67;;;51.10;;
14603;SDS011;7388;51.078;13.740;2024-03-02T07:56:52;83.20;;;52.50;;
14603;SDS011;7388;51.078;13.740;2024-03-02T07:59:18;77.40;;;51.37;;
14603;SDS011;7388;51.078;13.740;2024-03-02T08:01:44;66.10;;;47.40;;
14603;SDS011;7388;51.078;13.740;2024-03-02T08:04:09;78.93;;;50.10;;
14603;SDS011;7388;51.078;13.740;2024-03-02T08:06:35;73.20;;;50.70;;
14603;SDS011;7388;51.078;13.740;2024-03-02T08:09:01;78.03;;;49.03;;
14603;SDS011;7388;51.078;13.740;2024-03-02T08:11:27;74.53;;;48.50;;
14603;SDS011;7388;51.078;13.740;2024-03-02T08:13:54;77.25;;;48.63;;
14603;SDS011;7388;51.078;13.740;2024-03-02T08:16:20;83.10;;;49.45;;
14603;SDS011;7388;51.078;13.740;2024-03-02T08:18:47;74.40;;;43.97;;
14603;SDS011;7388;51.078;13.740;2024-03-02T08:21:14;69.63;;;44.75;;
14603;SDS011;7388;51.078;13.740;2024-03-02T08:23:40;76.60;;;45.27;;
14603;SDS011;7388;51.078;13.740;2024-03-02T08:26:07;72.00;;;44.53;;
14603;SDS011;7388;51.078;13.740;2024-03-02T08:28:34;71.50;;;45.90;;
14603;SDS011;7388;51.078;13.740;2024-03-02T08:31:02;75.63;;;44.15;;
14603;SDS011;7388;51.078;13.740;2024-03-02T08:33:28;69.18;;;44.25;;
14603;SDS011;7388;51.078;13.740;2024-03-02T08:35:54;63.73;;;40.47;;
14603;SDS011;7388;51.078;13.740;2024-03-02T08:38:20;60.17;;;41.72;;
14603;SDS011;7388;51.078;13.740;2024-03-02T08:40:46;61.30;;;39.42;;
14603;SDS011;7388;51.078;13.740;2024-03-02T08:43:12;64.03;;;38.80;;
14603;SDS011;7388;51.078;13.740;2024-03-02T08:45:39;56.88;;;35.88;;
14603;SDS011;7388;51.078;13.740;2024-03-02T08:48:06;49.50;;;33.00;;
14603;SDS011;7388;51.078;13.740;2024-03-02T08:50:33;49.38;;;32.20;;
14603;SDS011;7388;51.078;13.740;2024-03-02T08:53:00;48.92;;;32.38;;
14603;SDS011;7388;51.078;13.740;2024-03-02T08:55:26;45.42;;;29.38;;
14603;SDS011;7388;51.078;13.740;2024-03-02T08:57:52;48.60;;;30.40;;
14603;SDS011;7388;51.078;13.740;2024-03-02T09:00:18;42.77;;;28.30;;
14603;SDS011;7388;51.078;13.740;2024-03-02T09:02:44;50.38;;;30.33;;
14603;SDS011;7388;51.078;13.740;2024-03-02T09:05:10;39.08;;;29.02;;
14603;SDS011;7388;51.078;13.740;2024-03-02T09:07:36;42.10;;;30.10;;
14603;SDS011;7388;51.078;13.740;2024-03-02T09:10:04;42.67;;;29.58;;
14603;SDS011;7388;51.078;13.740;2024-03-02T09:12:31;40.90;;;27.05;;
14603;SDS011;7388;51.078;13.740;2024-03-02T09:14:57;39.30;;;26.95;;
14603;SDS011;7388;51.078;13.740;2024-03-02T09:17:23;37.60;;;25.92;;
14603;SDS011;7388;51.078;13.740;2024-03-02T09:19:49;39.42;;;25.65;;
14603;SDS011;7388;51.078;13.740;2024-03-02T09:22:18;37.25;;;25.10;;
14603;SDS011;7388;51.078;13.740;2024-03-02T09:24:44;35.67;;;25.52;;
14603;SDS011;7388;51.078;13.740;2024-03-02T09:27:10;36.77;;;25.37;;
14603;SDS011;7388;51.078;13.740;2024-03-02T09:29:36;38.63;;;28.52;;
14603;SDS011;7388;51.078;13.740;2024-03-02T09:32:02;38.37;;;25.93;;
14603;SDS011;7388;51.078;13.740;2024-03-02T09:34:28;35.70;;;25.70;;
14603;SDS011;7388;51.078;13.740;2024-03-02T09:36:54;35.10;;;23.50;;
14603;SDS011;7388;51.078;13.740;2024-03-02T09:39:20;44.70;;;25.93;;
14603;SDS011;7388;51.078;13.740;2024-03-02T09:41:45;40.30;;;25.63;;
14603;SDS011;7388;51.078;13.740;2024-03-02T09:44:13;38.35;;;25.58;;
14603;SDS011;7388;51.078;13.740;2024-03-02T09:46:39;42.22;;;25.80;;
14603;SDS011;7388;51.078;13.740;2024-03-02T09:49:08;28.27;;;22.15;;
14603;SDS011;7388;51.078;13.740;2024-03-02T09:51:36;33.97;;;22.35;;
14603;SDS011;7388;51.078;13.740;2024-03-02T09:54:02;39.53;;;26.38;;
14603;SDS011;7388;51.078;13.740;2024-03-02T09:56:29;41.55;;;27.55;;
14603;SDS011;7388;51.078;13.740;2024-03-02T09:58:54;35.60;;;26.00;;
14603;SDS011;7388;51.078;13.740;2024-03-02T10:01:20;40.47;;;27.63;;
14603;SDS011;7388;51.078;13.740;2024-03-02T10:03:46;46.93;;;28.23;;
14603;SDS011;7388;51.078;13.740;2024-03-02T10:06:23;43.75;;;29.08;;
14603;SDS011;7388;51.078;13.740;2024-03-02T10:08:49;43.67;;;29.88;;
14603;SDS011;7388;51.078;13.740;2024-03-02T10:11:28;44.20;;;30.20;;
14603;SDS011;7388;51.078;13.740;2024-03-02T10:14:08;51.50;;;30.88;;
14603;SDS011;7388;51.078;13.740;2024-03-02T10:16:39;48.80;;;29.65;;
14603;SDS011;7388;51.078;13.740;2024-03-02T10:21:48;48.92;;;30.88;;
14603;SDS011;7388;51.078;13.740;2024-03-02T10:24:15;44.92;;;26.98;;
14603;SDS011;7388;51.078;13.740;2024-03-02T10:26:41;47.53;;;28.40;;
14603;SDS011;7388;51.078;13.740;2024-03-02T10:29:11;47.10;;;30.80;;
14603;SDS011;7388;51.078;13.740;2024-03-02T10:31:37;41.20;;;28.05;;
14603;SDS011;7388;51.078;13.740;2024-03-02T10:34:05;35.40;;;26.15;;
14603;SDS011;7388;51.078;13.740;2024-03-02T10:36:32;32.58;;;24.30;;
14603;SDS011;7388;51.078;13.740;2024-03-02T10:39:05;39.35;;;26.40;;
14603;SDS011;7388;51.078;13.740;2024-03-02T10:41:32;39.35;;;26.40;;
14603;SDS011;7388;51.078;13.740;2024-03-02T10:44:03;47.75;;;27.67;;
14603;SDS011;7388;51.078;13.740;2024-03-02T10:46:31;40.80;;;26.90;;
14603;SDS011;7388;51.078;13.740;2024-03-02T10:48:58;38.88;;;26.13;;
14603;SDS011;7388;51.078;13.740;2024-03-02T10:51:28;41.20;;;24.33;;
14603;SDS011;7388;51.078;13.740;2024-03-02T10:54:01;35.97;;;24.58;;
14603;SDS011;7388;51.078;13.740;2024-03-02T10:56:32;34.58;;;23.77;;
14603;SDS011;7388;51.078;13.740;2024-03-02T10:59:19;31.98;;;24.15;;
14603;SDS011;7388;51.078;13.740;2024-03-02T11:02:01;43.13;;;26.33;;
14603;SDS011;7388;51.078;13.740;2024-03-02T11:04:28;28.25;;;19.55;;
14603;SDS011;7388;51.078;13.740;2024-03-02T11:07:02;24.73;;;18.15;;
14603;SDS011;7388;51.078;13.740;2024-03-02T11:09:41;26.50;;;19.30;;
14603;SDS011;7388;51.078;13.740;2024-03-02T11:12:13;27.02;;;20.73;;
14603;SDS011;7388;51.078;13.740;2024-03-02T11:14:44;29.00;;;19.60;;
14603;SDS011;7388;51.078;13.740;2024-03-02T11:17:11;29.60;;;21.30;;
14603;SDS011;7388;51.078;13.740;2024-03-02T11:19:40;29.70;;;22.13;;
14603;SDS011;7388;51.078;13.740;2024-03-02T11:22:08;27.25;;;19.02;;
14603;SDS011;7388;51.078;13.740;2024-03-02T11:24:34;24.40;;;16.75;;
14603;SDS011;7388;51.078;13.740;2024-03-02T11:27:01;21.03;;;16.10;;
14603;SDS011;7388;51.078;13.740;2024-03-02T11:32:01;20.42;;;15.43;;
14603;SDS011;7388;51.078;13.740;2024-03-02T11:34:31;16.80;;;14.50;;
14603;SDS011;7388;51.078;13.740;2024-03-02T11:36:58;17.10;;;14.77;;
14603;SDS011;7388;51.078;13.740;2024-03-02T11:39:27;14.50;;;11.97;;
14603;SDS011;7388;51.078;13.740;2024-03-02T11:41:53;16.58;;;11.95;;
14603;SDS011;7388;51.078;13.740;2024-03-02T11:44:26;15.85;;;11.52;;
14603;SDS011;7388;51.078;13.740;2024-03-02T11:46:58;12.18;;;10.63;;
14603;SDS011;7388;51.078;13.740;2024-03-02T11:49:40;15.38;;;11.68;;
14603;SDS011;7388;51.078;13.740;2024-03-02T11:52:07;14.75;;;11.40;;
14603;SDS011;7388;51.078;13.740;2024-03-02T11:54:36;16.10;;;11.80;;
14603;SDS011;7388;51.078;13.740;2024-03-02T11:57:04;14.57;;;12.52;;
14603;SDS011;7388;51.078;13.740;2024-03-02T11:59:31;12.68;;;11.23;;
14603;SDS011;7388;51.078;13.740;2024-03-02T12:01:57;15.88;;;11.38;;
14603;SDS011;7388;51.078;13.740;2024-03-02T12:04:24;14.75;;;10.98;;
14603;SDS011;7388;51.078;13.740;2024-03-02T12:09:25;12.35;;;10.07;;
14603;SDS011;7388;51.078;13.740;2024-03-02T12:12:04;19.75;;;10.63;;
14603;SDS011;7388;51.078;13.740;2024-03-02T12:14:34;16.20;;;10.77;;
14603;SDS011;7388;51.078;13.740;2024-03-02T12:17:02;16.33;;;12.30;;
14603;SDS011;7388;51.078;13.740;2024-03-02T12:19:28;14.75;;;12.18;;
14603;SDS011;7388;51.078;13.740;2024-03-02T12:21:58;27.15;;;15.90;;
14603;SDS011;7388;51.078;13.740;2024-03-02T12:24:30;27.55;;;17.25;;
14603;SDS011;7388;51.078;13.740;2024-03-02T12:26:56;27.45;;;17.20;;
14603;SDS011;7388;51.078;13.740;2024-03-02T12:29:23;27.23;;;17.58;;
14603;SDS011;7388;51.078;13.740;2024-03-02T12:31:49;29.85;;;21.48;;
14603;SDS011;7388;51.078;13.740;2024-03-02T12:34:17;24.88;;;19.92;;
14603;SDS011;7388;51.078;13.740;2024-03-02T12:36:44;31.90;;;21.85;;
14603;SDS011;7388;51.078;13.740;2024-03-02T12:39:17;40.20;;;26.48;;
14603;SDS011;7388;51.078;13.740;2024-03-02T12:41:48;24.13;;;18.65;;
14603;SDS011;7388;51.078;13.740;2024-03-02T12:44:15;27.88;;;20.58;;
14603;SDS011;7388;51.078;13.740;2024-03-02T12:46:42;27.05;;;17.15;;
14603;SDS011;7388;51.078;13.740;2024-03-02T12:49:09;23.63;;;17.90;;
14603;SDS011;7388;51.078;13.740;2024-03-02T12:51:36;27.95;;;18.20;;
14603;SDS011;7388;51.078;13.740;2024-03-02T12:54:05;28.60;;;19.85;;
14603;SDS011;7388;51.078;13.740;2024-03-02T12:56:31;41.85;;;34.92;;
14603;SDS011;7388;51.078;13.740;2024-03-02T12:58:58;33.75;;;27.48;;
14603;SDS011;7388;51.078;13.740;2024-03-02T13:01:24;23.65;;;17.67;;
14603;SDS011;7388;51.078;13.740;2024-03-02T13:03:51;28.70;;;20.38;;
14603;SDS011;7388;51.078;13.740;2024-03-02T13:06:19;29.20;;;17.67;;
14603;SDS011;7388;51.078;13.740;2024-03-02T13:08:46;22.80;;;18.25;;
14603;SDS011;7388;51.078;13.740;2024-03-02T13:11:12;22.33;;;17.33;;
14603;SDS011;7388;51.078;13.740;2024-03-02T13:13:41;21.95;;;17.52;;
14603;SDS011;7388;51.078;13.740;2024-03-02T13:16:10;24.05;;;18.92;;
14603;SDS011;7388;51.078;13.740;2024-03-02T13:18:36;30.63;;;20.55;;
14603;SDS011;7388;51.078;13.740;2024-03-02T13:21:03;21.00;;;17.83;;
14603;SDS011;7388;51.078;13.740;2024-03-02T13:23:29;29.70;;;21.47;;
14603;SDS011;7388;51.078;13.740;2024-03-02T13:25:56;22.70;;;17.95;;
14603;SDS011;7388;51.078;13.740;2024-03-02T13:28:23;23.10;;;18.05;;
14603;SDS011;7388;51.078;13.740;2024-03-02T13:30:52;21.13;;;16.90;;
14603;SDS011;7388;51.078;13.740;2024-03-02T13:33:17;21.87;;;16.90;;
14603;SDS011;7388;51.078;13.740;2024-03-02T13:35:48;21.83;;;17.00;;
14603;SDS011;7388;51.078;13.740;2024-03-02T13:38:15;25.83;;;18.10;;
14603;SDS011;7388;51.078;13.740;2024-03-02T13:40:44;27.27;;;17.45;;
14603;SDS011;7388;51.078;13.740;2024-03-02T13:43:11;21.40;;;15.18;;
14603;SDS011;7388;51.078;13.740;2024-03-02T13:45:37;26.75;;;19.58;;
14603;SDS011;7388;51.078;13.740;2024-03-02T13:48:04;24.10;;;17.38;;
14603;SDS011;7388;51.078;13.740;2024-03-02T13:50:30;26.05;;;16.80;;
14603;SDS011;7388;51.078;13.740;2024-03-02T13:52:56;23.73;;;16.40;;
14603;SDS011;7388;51.078;13.740;2024-03-02T13:55:22;23.47;;;16.27;;
14603;SDS011;7388;51.078;13.740;2024-03-02T13:57:47;20.33;;;17.83;;
14603;SDS011;7388;51.078;13.740;2024-03-02T14:00:19;23.65;;;14.98;;
14603;SDS011;7388;51.078;13.740;2024-03-02T14:02:45;22.42;;;15.43;;
14603;SDS011;7388;51.078;13.740;2024-03-02T14:05:11;20.65;;;15.68;;
14603;SDS011;7388;51.078;13.740;2024-03-02T14:07:38;19.25;;;15.82;;
14603;SDS011;7388;51.078;13.740;2024-03-02T14:10:05;18.40;;;16.00;;
14603;SDS011;7388;51.078;13.740;2024-03-02T14:12:31;23.33;;;15.43;;
14603;SDS011;7388;51.078;13.740;2024-03-02T14:14:57;19.50;;;16.10;;
14603;SDS011;7388;51.078;13.740;2024-03-02T14:17:27;20.17;;;14.07;;
14603;SDS011;7388;51.078;13.740;2024-03-02T14:19:53;23.63;;;17.58;;
14603;SDS011;7388;51.078;13.740;2024-03-02T14:22:19;18.10;;;14.20;;
14603;SDS011;7388;51.078;13.740;2024-03-02T14:24:45;26.90;;;19.00;;
14603;SDS011;7388;51.078;13.740;2024-03-02T14:27:12;20.17;;;15.18;;
14603;SDS011;7388;51.078;13.740;2024-03-02T14:29:39;20.90;;;16.80;;
14603;SDS011;7388;51.078;13.740;2024-03-02T14:32:06;27.38;;;20.85;;
14603;SDS011;7388;51.078;13.740;2024-03-02T14:34:32;32.83;;;23.45;;